Time,TemperatureF,DewpointF,PressureIn,WindDirection,WindDirectionDegrees,WindSpeedMPH,WindSpeedGustMPH,Humidity,HourlyPrecipIn,Conditions,Clouds,dailyrainin,SoftwareType,DateUTC
2013-02-15 00:02:00,47.0,37.0,30.11,South,178,0.0,0.0,67,0.00,,,0.00,,2013-02-15 06:02:00,
2013-02-15 00:11:00,47.0,37.0,30.11,South,178,0.0,0.0,68,0.00,,,0.00,,2013-02-15 06:11:00,
2013-02-15 00:21:00,47.0,37.0,30.11,South,178,0.0,0.0,68,0.00,,,0.00,,2013-02-15 06:21:00,
2013-02-15 00:31:00,47.0,37.0,30.12,South,178,0.0,0.0,68,0.00,,,0.00,,2013-02-15 06:31:00,
2013-02-15 00:42:00,47.0,37.0,30.12,South,178,0.0,0.0,68,0.00,,,0.00,,2013-02-15 06:42:00,
2013-02-15 00:51:00,46.0,36.0,30.12,South,178,0.0,0.0,69,0.00,,,0.00,,2013-02-15 06:51:00,
2013-02-15 01:01:00,47.0,38.0,30.13,South,178,0.0,0.0,72,0.00,,,0.00,,2013-02-15 07:01:00,
2013-02-15 01:11:00,47.0,38.0,30.13,South,178,0.0,0.0,72,0.00,,,0.00,,2013-02-15 07:11:00,
2013-02-15 01:21:00,47.0,38.0,30.13,South,178,0.0,0.0,71,0.00,,,0.00,,2013-02-15 07:21:00,
2013-02-15 01:31:00,47.0,37.0,30.14,North,0,3.0,12.0,68,0.00,,,0.00,,2013-02-15 07:31:00,
2013-02-15 01:42:00,47.0,37.0,30.14,North,0,3.0,12.0,68,0.00,,,0.00,,2013-02-15 07:42:00,
2013-02-15 01:52:00,49.0,37.0,30.14,WNW,289,1.0,12.0,63,0.00,,,0.00,,2013-02-15 07:52:00,
2013-02-15 02:01:00,52.0,38.0,30.18,NNW,330,1.0,13.0,59,0.00,,,0.00,,2013-02-15 08:01:00,
2013-02-15 02:11:00,52.0,38.0,30.18,NNW,330,1.0,13.0,59,0.00,,,0.00,,2013-02-15 08:11:00,
2013-02-15 02:21:00,53.0,40.0,30.18,WNW,303,3.0,9.0,61,0.00,,,0.00,,2013-02-15 08:21:00,
2013-02-15 02:31:00,52.0,39.0,30.19,NE,45,2.0,10.0,62,0.00,,,0.00,,2013-02-15 08:31:00,
2013-02-15 02:42:00,52.0,39.0,30.19,NE,45,2.0,10.0,62,0.00,,,0.00,,2013-02-15 08:42:00,
2013-02-15 02:53:00,52.0,39.0,30.19,NE,56,3.0,14.0,60,0.00,,,0.00,,2013-02-15 08:53:00,
2013-02-15 03:01:00,51.0,36.0,30.19,ENE,58,3.0,12.0,57,0.00,,,0.00,,2013-02-15 09:01:00,
2013-02-15 03:12:00,51.0,36.0,30.19,ENE,58,3.0,12.0,57,0.00,,,0.00,,2013-02-15 09:12:00,
2013-02-15 03:21:00,51.0,36.0,30.20,NE,52,3.0,12.0,56,0.00,,,0.00,,2013-02-15 09:21:00,
2013-02-15 03:32:00,51.0,36.0,30.21,NE,34,2.0,6.0,57,0.00,,,0.00,,2013-02-15 09:32:00,
2013-02-15 03:42:00,51.0,36.0,30.21,NE,34,2.0,6.0,57,0.00,,,0.00,,2013-02-15 09:42:00,
2013-02-15 03:51:00,51.0,36.0,30.21,ENE,66,5.0,12.0,56,0.00,,,0.00,,2013-02-15 09:51:00,
2013-02-15 04:01:00,50.0,35.0,30.21,NE,48,3.0,9.0,56,0.00,,,0.00,,2013-02-15 10:01:00,
2013-02-15 04:11:00,50.0,35.0,30.21,NE,48,3.0,9.0,56,0.00,,,0.00,,2013-02-15 10:11:00,
2013-02-15 04:21:00,50.0,35.0,30.21,ENE,64,2.0,9.0,57,0.00,,,0.00,,2013-02-15 10:21:00,
2013-02-15 04:31:00,50.0,34.0,30.22,ENE,72,5.0,12.0,55,0.00,,,0.00,,2013-02-15 10:31:00,
2013-02-15 04:41:00,50.0,34.0,30.22,ENE,72,5.0,12.0,55,0.00,,,0.00,,2013-02-15 10:41:00,
2013-02-15 04:51:00,50.0,34.0,30.22,NE,54,5.0,12.0,55,0.00,,,0.00,,2013-02-15 10:51:00,
2013-02-15 05:01:00,49.0,34.0,30.23,ENE,64,3.0,14.0,56,0.00,,,0.00,,2013-02-15 11:01:00,
2013-02-15 05:11:00,49.0,34.0,30.23,ENE,64,3.0,14.0,56,0.00,,,0.00,,2013-02-15 11:11:00,
2013-02-15 05:22:00,49.0,34.0,30.24,ENE,62,4.0,14.0,56,0.00,,,0.00,,2013-02-15 11:22:00,
2013-02-15 05:32:00,49.0,34.0,30.24,ENE,62,5.0,12.0,57,0.00,,,0.00,,2013-02-15 11:32:00,
2013-02-15 05:42:00,49.0,34.0,30.24,ENE,62,5.0,12.0,57,0.00,,,0.00,,2013-02-15 11:42:00,
2013-02-15 05:52:00,49.0,35.0,30.24,ENE,65,4.0,13.0,58,0.00,,,0.00,,2013-02-15 11:52:00,
2013-02-15 06:01:00,49.0,35.0,30.25,ENE,62,5.0,13.0,59,0.00,,,0.00,,2013-02-15 12:01:00,
2013-02-15 06:11:00,49.0,35.0,30.25,ENE,62,5.0,13.0,59,0.00,,,0.00,,2013-02-15 12:11:00,
2013-02-15 06:21:00,49.0,35.0,30.26,ENE,62,5.0,12.0,59,0.00,,,0.00,,2013-02-15 12:21:00,
2013-02-15 06:32:00,48.0,35.0,30.27,ENE,69,3.0,10.0,61,0.00,,,0.00,,2013-02-15 12:32:00,
2013-02-15 06:42:00,48.0,35.0,30.27,ENE,69,3.0,10.0,61,0.00,,,0.00,,2013-02-15 12:42:00,
2013-02-15 06:52:00,48.0,35.0,30.27,ENE,62,5.0,13.0,61,0.00,,,0.00,,2013-02-15 12:52:00,
2013-02-15 07:02:00,48.0,36.0,30.29,NE,41,2.0,12.0,62,0.00,,,0.00,,2013-02-15 13:02:00,
2013-02-15 07:11:00,48.0,36.0,30.29,NE,41,2.0,12.0,62,0.00,,,0.00,,2013-02-15 13:11:00,
2013-02-15 07:21:00,48.0,36.0,30.29,ENE,64,5.0,16.0,63,0.00,,,0.00,,2013-02-15 13:21:00,
2013-02-15 07:32:00,47.0,35.0,30.29,NE,53,3.0,12.0,64,0.00,,,0.00,,2013-02-15 13:32:00,
2013-02-15 07:41:00,47.0,35.0,30.29,NE,53,3.0,12.0,64,0.00,,,0.00,,2013-02-15 13:41:00,
2013-02-15 07:51:00,47.0,36.0,30.29,NNE,22,2.0,12.0,66,0.00,,,0.00,,2013-02-15 13:51:00,
2013-02-15 08:01:00,46.0,35.0,30.31,ENE,57,5.0,10.0,65,0.00,,,0.00,,2013-02-15 14:01:00,
2013-02-15 08:11:00,46.0,35.0,30.31,ENE,57,5.0,10.0,65,0.00,,,0.00,,2013-02-15 14:11:00,
2013-02-15 08:21:00,46.0,35.0,30.31,ENE,59,5.0,12.0,65,0.00,,,0.00,,2013-02-15 14:21:00,
2013-02-15 08:32:00,46.0,35.0,30.32,ENE,64,3.0,12.0,66,0.00,,,0.00,,2013-02-15 14:32:00,
2013-02-15 08:41:00,46.0,35.0,30.32,ENE,64,3.0,12.0,66,0.00,,,0.00,,2013-02-15 14:41:00,
2013-02-15 08:52:00,46.0,35.0,30.33,NNE,27,1.0,7.0,66,0.00,,,0.00,,2013-02-15 14:52:00,
2013-02-15 09:01:00,46.0,36.0,30.33,ENE,60,4.0,14.0,68,0.00,,,0.00,,2013-02-15 15:01:00,
2013-02-15 09:11:00,46.0,36.0,30.33,ENE,60,4.0,14.0,68,0.00,,,0.00,,2013-02-15 15:11:00,
2013-02-15 09:21:00,45.0,35.0,30.33,East,86,3.0,10.0,69,0.00,,,0.00,,2013-02-15 15:21:00,
2013-02-15 09:32:00,45.0,35.0,30.34,NE,45,3.0,10.0,68,0.00,,,0.00,,2013-02-15 15:32:00,
2013-02-15 09:42:00,45.0,35.0,30.34,NE,45,3.0,10.0,68,0.00,,,0.00,,2013-02-15 15:42:00,
2013-02-15 09:51:00,46.0,36.0,30.35,NE,56,3.0,10.0,67,0.00,,,0.00,,2013-02-15 15:51:00,
2013-02-15 10:01:00,46.0,35.0,30.35,ENE,63,3.0,7.0,65,0.00,,,0.00,,2013-02-15 16:01:00,
2013-02-15 10:11:00,46.0,35.0,30.35,ENE,63,3.0,7.0,65,0.00,,,0.00,,2013-02-15 16:11:00,
2013-02-15 10:22:00,46.0,35.0,30.35,ENE,62,3.0,8.0,64,0.00,,,0.00,,2013-02-15 16:22:00,
2013-02-15 10:32:00,46.0,35.0,30.36,NE,54,3.0,10.0,64,0.00,,,0.00,,2013-02-15 16:32:00,
2013-02-15 10:42:00,46.0,35.0,30.36,NE,54,3.0,10.0,64,0.00,,,0.00,,2013-02-15 16:42:00,
2013-02-15 10:51:00,46.0,34.0,30.36,ENE,65,3.0,10.0,63,0.00,,,0.00,,2013-02-15 16:51:00,
2013-02-15 11:01:00,46.0,33.0,30.37,NE,56,4.0,13.0,61,0.00,,,0.00,,2013-02-15 17:01:00,
2013-02-15 11:11:00,46.0,33.0,30.37,NE,53,4.0,12.0,60,0.00,,,0.00,,2013-02-15 17:11:00,
2013-02-15 11:21:00,46.0,33.0,30.37,NE,53,4.0,12.0,60,0.00,,,0.00,,2013-02-15 17:21:00,
2013-02-15 11:32:00,46.0,32.0,30.38,NE,53,3.0,12.0,58,0.00,,,0.00,,2013-02-15 17:32:00,
2013-02-15 11:42:00,46.0,32.0,30.38,NE,53,3.0,12.0,58,0.00,,,0.00,,2013-02-15 17:42:00,
2013-02-15 11:52:00,46.0,32.0,30.38,ENE,61,3.0,10.0,58,0.00,,,0.00,,2013-02-15 17:52:00,
2013-02-15 12:01:00,46.0,30.0,30.38,NNE,30,3.0,10.0,53,0.00,,,0.00,,2013-02-15 18:01:00,
2013-02-15 12:11:00,46.0,30.0,30.38,NNE,30,3.0,10.0,53,0.00,,,0.00,,2013-02-15 18:11:00,
2013-02-15 12:21:00,46.0,27.0,30.38,NNW,345,5.0,12.0,48,0.00,,,0.00,,2013-02-15 18:21:00,
2013-02-15 12:31:00,46.0,26.0,30.37,NNE,33,5.0,13.0,46,0.00,,,0.00,,2013-02-15 18:31:00,
2013-02-15 12:42:00,46.0,26.0,30.37,NNE,33,5.0,13.0,46,0.00,,,0.00,,2013-02-15 18:42:00,
2013-02-15 12:52:00,47.0,26.0,30.36,ENE,65,3.0,10.0,44,0.00,,,0.00,,2013-02-15 18:52:00,
2013-02-15 13:01:00,46.0,25.0,30.36,North,0,2.0,12.0,44,0.00,,,0.00,,2013-02-15 19:01:00,
2013-02-15 13:11:00,46.0,25.0,30.36,North,0,2.0,12.0,44,0.00,,,0.00,,2013-02-15 19:11:00,
2013-02-15 13:22:00,46.0,24.0,30.36,North,0,3.0,12.0,41,0.00,,,0.00,,2013-02-15 19:22:00,
2013-02-15 13:32:00,46.0,25.0,30.35,NNE,15,2.0,7.0,44,0.00,,,0.00,,2013-02-15 19:32:00,
2013-02-15 13:41:00,46.0,25.0,30.35,NNE,15,2.0,7.0,44,0.00,,,0.00,,2013-02-15 19:41:00,
2013-02-15 13:51:00,46.0,29.0,30.35,NNW,347,2.0,7.0,52,0.00,,,0.00,,2013-02-15 19:51:00,
2013-02-15 14:01:00,46.0,28.0,30.34,NNW,344,4.0,12.0,50,0.00,,,0.00,,2013-02-15 20:01:00,
2013-02-15 14:11:00,46.0,28.0,30.34,NNW,344,4.0,12.0,50,0.00,,,0.00,,2013-02-15 20:11:00,
2013-02-15 14:21:00,46.0,28.0,30.34,NNW,340,3.0,12.0,50,0.00,,,0.00,,2013-02-15 20:21:00,
2013-02-15 14:32:00,46.0,27.0,30.34,NNW,340,3.0,10.0,48,0.00,,,0.00,,2013-02-15 20:32:00,
2013-02-15 14:42:00,46.0,27.0,30.34,NNW,340,3.0,10.0,48,0.00,,,0.00,,2013-02-15 20:42:00,
2013-02-15 14:52:00,46.0,27.0,30.34,NNW,333,2.0,10.0,47,0.00,,,0.00,,2013-02-15 20:52:00,
2013-02-15 15:01:00,47.0,26.0,30.33,NNE,26,3.0,10.0,44,0.00,,,0.00,,2013-02-15 21:01:00,
2013-02-15 15:11:00,47.0,26.0,30.33,NNE,26,3.0,10.0,44,0.00,,,0.00,,2013-02-15 21:11:00,
2013-02-15 15:21:00,48.0,27.0,30.34,NE,42,4.0,10.0,43,0.00,,,0.00,,2013-02-15 21:21:00,
2013-02-15 15:31:00,49.0,27.0,30.33,NNW,327,4.0,14.0,42,0.00,,,0.00,,2013-02-15 21:31:00,
2013-02-15 15:42:00,49.0,27.0,30.33,NNW,327,4.0,14.0,42,0.00,,,0.00,,2013-02-15 21:42:00,
2013-02-15 15:51:00,49.0,26.0,30.32,ENE,62,6.0,14.0,41,0.00,,,0.00,,2013-02-15 21:51:00,
2013-02-15 16:02:00,49.0,25.0,30.32,ENE,65,5.0,13.0,38,0.00,,,0.00,,2013-02-15 22:02:00,
2013-02-15 16:11:00,49.0,25.0,30.32,ENE,65,5.0,13.0,38,0.00,,,0.00,,2013-02-15 22:11:00,
2013-02-15 16:21:00,49.0,24.0,30.32,NNW,336,6.0,12.0,37,0.00,,,0.00,,2013-02-15 22:21:00,
2013-02-15 16:31:00,49.0,24.0,30.32,NE,36,4.0,12.0,37,0.00,,,0.00,,2013-02-15 22:31:00,
2013-02-15 16:41:00,49.0,24.0,30.32,NE,36,4.0,12.0,37,0.00,,,0.00,,2013-02-15 22:41:00,
2013-02-15 16:51:00,49.0,22.0,30.33,North,355,6.0,12.0,34,0.00,,,0.00,,2013-02-15 22:51:00,
2013-02-15 17:02:00,49.0,24.0,30.33,NNW,340,5.0,13.0,37,0.00,,,0.00,,2013-02-15 23:02:00,
2013-02-15 17:11:00,49.0,24.0,30.33,NNW,340,5.0,13.0,37,0.00,,,0.00,,2013-02-15 23:11:00,
2013-02-15 17:21:00,49.0,24.0,30.33,North,354,5.0,12.0,37,0.00,,,0.00,,2013-02-15 23:21:00,
2013-02-15 17:31:00,48.0,23.0,30.34,NW,315,2.0,9.0,37,0.00,,,0.00,,2013-02-15 23:31:00,
2013-02-15 17:42:00,48.0,23.0,30.34,NW,315,2.0,9.0,37,0.00,,,0.00,,2013-02-15 23:42:00,
2013-02-15 17:52:00,48.0,23.0,30.34,NE,40,2.0,9.0,37,0.00,,,0.00,,2013-02-15 23:52:00,
2013-02-15 18:02:00,48.0,24.0,30.34,North,7,4.0,9.0,38,0.00,,,0.00,,2013-02-16 00:02:00,
2013-02-15 18:11:00,48.0,24.0,30.34,North,7,4.0,9.0,38,0.00,,,0.00,,2013-02-16 00:11:00,
2013-02-15 18:21:00,47.0,23.0,30.35,NE,37,1.0,7.0,38,0.00,,,0.00,,2013-02-16 00:21:00,
2013-02-15 18:32:00,47.0,23.0,30.35,NNW,347,2.0,6.0,38,0.00,,,0.00,,2013-02-16 00:32:00,
2013-02-15 18:41:00,47.0,23.0,30.35,NNW,347,2.0,6.0,38,0.00,,,0.00,,2013-02-16 00:41:00,
2013-02-15 18:51:00,46.0,22.0,30.35,NW,321,1.0,6.0,39,0.00,,,0.00,,2013-02-16 00:51:00,
2013-02-15 19:02:00,46.0,23.0,30.35,NW,321,1.0,10.0,40,0.00,,,0.00,,2013-02-16 01:02:00,
2013-02-15 19:11:00,46.0,23.0,30.35,NW,321,1.0,10.0,40,0.00,,,0.00,,2013-02-16 01:11:00,
2013-02-15 19:21:00,45.0,22.0,30.36,NNW,346,2.0,6.0,40,0.00,,,0.00,,2013-02-16 01:21:00,
2013-02-15 19:32:00,45.0,23.0,30.37,NNW,341,1.0,5.0,41,0.00,,,0.00,,2013-02-16 01:32:00,
2013-02-15 19:41:00,45.0,23.0,30.37,NNW,341,1.0,5.0,41,0.00,,,0.00,,2013-02-16 01:41:00,
2013-02-15 19:51:00,44.0,22.0,30.37,NNW,342,1.0,5.0,42,0.00,,,0.00,,2013-02-16 01:51:00,
2013-02-15 20:01:00,44.0,23.0,30.38,NW,311,2.0,5.0,43,0.00,,,0.00,,2013-02-16 02:01:00,
2013-02-15 20:11:00,44.0,23.0,30.38,NW,311,2.0,5.0,43,0.00,,,0.00,,2013-02-16 02:11:00,
2013-02-15 20:21:00,44.0,23.0,30.38,NNW,345,2.0,3.0,44,0.00,,,0.00,,2013-02-16 02:21:00,
2013-02-15 20:31:00,44.0,23.0,30.39,NNW,344,1.0,2.0,44,0.00,,,0.00,,2013-02-16 02:31:00,
2013-02-15 20:42:00,44.0,23.0,30.39,NNW,344,1.0,2.0,44,0.00,,,0.00,,2013-02-16 02:42:00,
2013-02-15 20:52:00,43.0,23.0,30.39,NNW,344,1.0,3.0,45,0.00,,,0.00,,2013-02-16 02:52:00,
2013-02-15 21:01:00,43.0,24.0,30.39,NNW,344,0.0,2.0,46,0.00,,,0.00,,2013-02-16 03:01:00,
2013-02-15 21:11:00,43.0,24.0,30.39,NNW,344,0.0,2.0,46,0.00,,,0.00,,2013-02-16 03:11:00,
2013-02-15 21:21:00,42.0,23.0,30.40,NNW,344,0.0,2.0,47,0.00,,,0.00,,2013-02-16 03:21:00,
2013-02-15 21:32:00,42.0,24.0,30.40,NNW,344,0.0,1.0,48,0.00,,,0.00,,2013-02-16 03:32:00,
2013-02-15 21:41:00,42.0,24.0,30.40,NNW,344,0.0,1.0,48,0.00,,,0.00,,2013-02-16 03:41:00,
2013-02-15 21:52:00,41.0,24.0,30.40,NNW,344,0.0,2.0,50,0.00,,,0.00,,2013-02-16 03:52:00,
2013-02-15 22:01:00,41.0,25.0,30.41,NNW,344,0.0,1.0,53,0.00,,,0.00,,2013-02-16 04:01:00,
2013-02-15 22:11:00,41.0,25.0,30.41,NNW,344,0.0,1.0,53,0.00,,,0.00,,2013-02-16 04:11:00,
2013-02-15 22:21:00,40.0,25.0,30.41,NNW,344,0.0,1.0,54,0.00,,,0.00,,2013-02-16 04:21:00,
2013-02-15 22:32:00,40.0,25.0,30.41,NNW,344,0.0,0.0,54,0.00,,,0.00,,2013-02-16 04:32:00,
2013-02-15 22:41:00,40.0,25.0,30.41,NNW,344,0.0,0.0,54,0.00,,,0.00,,2013-02-16 04:41:00,
2013-02-15 22:51:00,40.0,25.0,30.41,NNW,344,0.0,0.0,54,0.00,,,0.00,,2013-02-16 04:51:00,
2013-02-15 23:01:00,40.0,25.0,30.40,NNW,344,0.0,0.0,54,0.00,,,0.00,,2013-02-16 05:01:00,
2013-02-15 23:12:00,40.0,25.0,30.40,NNW,344,0.0,0.0,54,0.00,,,0.00,,2013-02-16 05:12:00,
2013-02-15 23:21:00,40.0,25.0,30.40,NNW,344,0.0,0.0,54,0.00,,,0.00,,2013-02-16 05:21:00,
2013-02-15 23:32:00,40.0,25.0,30.40,NNW,344,0.0,0.0,54,0.00,,,0.00,,2013-02-16 05:32:00,
2013-02-15 23:42:00,40.0,25.0,30.40,NNW,344,0.0,0.0,54,0.00,,,0.00,,2013-02-16 05:42:00,
2013-02-15 23:50:00,40.0,25.0,30.40,NNW,344,0.0,0.0,54,0.00,,,0.00,,2013-02-16 05:50:00,
2013-02-15 23:52:00,40.0,25.0,30.39,NNW,344,0.0,0.0,54,0.00,,,0.00,,2013-02-16 05:52:00,